sensor_id;sensor_type;location;lat;lon;timestamp;temperature;humidity
78467;SHT31;67759;51.972;5.650;2024-01-07T00:02:12;9.9;48.5
78467;SHT31;67759;51.972;5.650;2024-01-07T00:04:41;9.9;48.3
78467;SHT31;67759;51.972;5.650;2024-01-07T00:07:12;9.9;48.5
78467;SHT31;67759;51.972;5.650;2024-01-07T00:09:42;9.8;49.0
78467;SHT31;67759;51.972;5.650;2024-01-07T00:12:11;9.7;48.7
78467;SHT31;67759;51.972;5.650;2024-01-07T00:14:39;9.7;48.8
78467;SHT31;67759;51.972;5.650;2024-01-07T00:17:08;9.6;49.0
78467;SHT31;67759;51.972;5.650;2024-01-07T00:19:37;9.6;48.7
78467;SHT31;67759;51.972;5.650;2024-01-07T00:22:09;9.6;49.7
78467;SHT31;67759;51.972;5.650;2024-01-07T00:24:37;9.5;49.9
78467;SHT31;67759;51.972;5.650;2024-01-07T00:27:09;9.5;49.7
78467;SHT31;67759;51.972;5.650;2024-01-07T00:29:38;9.5;49.9
78467;SHT31;67759;51.972;5.650;2024-01-07T00:32:06;9.5;50.2
78467;SHT31;67759;51.972;5.650;2024-01-07T00:34:35;9.5;49.7
78467;SHT31;67759;51.972;5.650;2024-01-07T00:37:04;9.5;49.7
78467;SHT31;67759;51.972;5.650;2024-01-07T00:39:32;9.5;49.8
78467;SHT31;67759;51.972;5.650;2024-01-07T00:42:01;9.6;49.5
78467;SHT31;67759;51.972;5.650;2024-01-07T00:44:29;9.6;49.7
78467;SHT31;67759;51.972;5.650;2024-01-07T00:46:58;9.6;49.6
78467;SHT31;67759;51.972;5.650;2024-01-07T00:49:26;9.6;49.5
78467;SHT31;67759;51.972;5.650;2024-01-07T00:51:55;9.6;49.7
78467;SHT31;67759;51.972;5.650;2024-01-07T00:54:23;9.6;49.5
78467;SHT31;67759;51.972;5.650;2024-01-07T00:56:52;9.6;49.8
78467;SHT31;67759;51.972;5.650;2024-01-07T00:59:21;9.6;49.3
78467;SHT31;67759;51.972;5.650;2024-01-07T01:01:49;9.7;50.5
78467;SHT31;67759;51.972;5.650;2024-01-07T01:04:18;9.7;49.7
78467;SHT31;67759;51.972;5.650;2024-01-07T01:06:46;9.7;49.5
78467;SHT31;67759;51.972;5.650;2024-01-07T01:09:15;9.7;49.6
78467;SHT31;67759;51.972;5.650;2024-01-07T01:11:44;9.7;49.2
78467;SHT31;67759;51.972;5.650;2024-01-07T01:14:13;9.7;49.2
78467;SHT31;67759;51.972;5.650;2024-01-07T01:16:41;9.7;49.4
78467;SHT31;67759;51.972;5.650;2024-01-07T01:19:10;9.7;50.1
78467;SHT31;67759;51.972;5.650;2024-01-07T01:21:38;9.7;49.9
78467;SHT31;67759;51.972;5.650;2024-01-07T01:24:08;9.8;49.8
78467;SHT31;67759;51.972;5.650;2024-01-07T01:26:37;9.8;49.4
78467;SHT31;67759;51.972;5.650;2024-01-07T01:29:06;9.9;49.3
78467;SHT31;67759;51.972;5.650;2024-01-07T01:31:34;9.9;49.2
78467;SHT31;67759;51.972;5.650;2024-01-07T01:34:03;9.9;48.9
78467;SHT31;67759;51.972;5.650;2024-01-07T01:36:32;10.0;48.7
78467;SHT31;67759;51.972;5.650;2024-01-07T01:39:01;10.0;48.7
78467;SHT31;67759;51.972;5.650;2024-01-07T01:41:34;9.9;48.5
78467;SHT31;67759;51.972;5.650;2024-01-07T01:44:02;9.9;48.0
78467;SHT31;67759;51.972;5.650;2024-01-07T01:46:33;9.9;48.4
78467;SHT31;67759;51.972;5.650;2024-01-07T01:49:02;9.9;48.7
78467;SHT31;67759;51.972;5.650;2024-01-07T01:51:31;9.9;48.5
78467;SHT31;67759;51.972;5.650;2024-01-07T01:54:00;9.8;48.5
78467;SHT31;67759;51.972;5.650;2024-01-07T01:56:32;9.8;48.2
78467;SHT31;67759;51.972;5.650;2024-01-07T01:59:04;9.8;48.3
78467;SHT31;67759;51.972;5.650;2024-01-07T02:01:34;9.8;48.4
78467;SHT31;67759;51.972;5.650;2024-01-07T02:04:02;9.8;48.4
78467;SHT31;67759;51.972;5.650;2024-01-07T02:06:32;9.8;48.5
78467;SHT31;67759;51.972;5.650;2024-01-07T02:09:01;9.8;48.5
78467;SHT31;67759;51.972;5.650;2024-01-07T02:11:30;9.9;48.4
78467;SHT31;67759;51.972;5.650;2024-01-07T02:14:00;9.9;48.7
78467;SHT31;67759;51.972;5.650;2024-01-07T02:16:29;9.9;48.2
78467;SHT31;67759;51.972;5.650;2024-01-07T02:18:57;10.0;48.2
78467;SHT31;67759;51.972;5.650;2024-01-07T02:21:26;10.0;48.3
78467;SHT31;67759;51.972;5.650;2024-01-07T02:23:55;9.9;48.4
78467;SHT31;67759;51.972;5.650;2024-01-07T02:26:24;9.9;48.4
78467;SHT31;67759;51.972;5.650;2024-01-07T02:28:52;9.9;47.7
78467;SHT31;67759;51.972;5.650;2024-01-07T02:31:21;9.9;48.0
78467;SHT31;67759;51.972;5.650;2024-01-07T02:33:49;9.8;48.3
78467;SHT31;67759;51.972;5.650;2024-01-07T02:36:20;9.6;48.7
78467;SHT31;67759;51.972;5.650;2024-01-07T02:38:50;9.5;49.1
78467;SHT31;67759;51.972;5.650;2024-01-07T02:41:20;9.3;49.4
78467;SHT31;67759;51.972;5.650;2024-01-07T02:43:52;9.3;50.2
78467;SHT31;67759;51.972;5.650;2024-01-07T02:46:22;9.3;49.5
78467;SHT31;67759;51.972;5.650;2024-01-07T02:48:51;9.2;50.0
78467;SHT31;67759;51.972;5.650;2024-01-07T02:51:20;9.2;50.0
78467;SHT31;67759;51.972;5.650;2024-01-07T02:53:50;9.1;50.5
78467;SHT31;67759;51.972;5.650;2024-01-07T02:56:19;9.1;50.3
78467;SHT31;67759;51.972;5.650;2024-01-07T02:58:47;9.1;50.5
78467;SHT31;67759;51.972;5.650;2024-01-07T03:01:16;9.2;50.5
78467;SHT31;67759;51.972;5.650;2024-01-07T03:03:44;9.3;50.3
78467;SHT31;67759;51.972;5.650;2024-01-07T03:06:13;9.3;50.0
78467;SHT31;67759;51.972;5.650;2024-01-07T03:08:42;9.4;49.7
78467;SHT31;67759;51.972;5.650;2024-01-07T03:11:11;9.4;49.7
78467;SHT31;67759;51.972;5.650;2024-01-07T03:13:40;9.4;50.2
78467;SHT31;67759;51.972;5.650;2024-01-07T03:16:20;9.4;49.7
78467;SHT31;67759;51.972;5.650;2024-01-07T03:18:51;9.3;50.1
78467;SHT31;67759;51.972;5.650;2024-01-07T03:21:21;9.3;49.8
78467;SHT31;67759;51.972;5.650;2024-01-07T03:23:51;9.3;49.5
78467;SHT31;67759;51.972;5.650;2024-01-07T03:26:20;9.2;49.6
78467;SHT31;67759;51.972;5.650;2024-01-07T03:28:49;9.1;50.4
78467;SHT31;67759;51.972;5.650;2024-01-07T03:31:19;9.0;49.6
78467;SHT31;67759;51.972;5.650;2024-01-07T03:33:49;8.9;50.8
78467;SHT31;67759;51.972;5.650;2024-01-07T03:36:18;8.9;50.3
78467;SHT31;67759;51.972;5.650;2024-01-07T03:38:46;8.9;50.6
78467;SHT31;67759;51.972;5.650;2024-01-07T03:41:18;8.9;50.2
78467;SHT31;67759;51.972;5.650;2024-01-07T03:43:47;8.9;50.8
78467;SHT31;67759;51.972;5.650;2024-01-07T03:46:17;8.9;50.7
78467;SHT31;67759;51.972;5.650;2024-01-07T03:48:46;8.9;50.3
78467;SHT31;67759;51.972;5.650;2024-01-07T03:51:14;9.0;50.4
78467;SHT31;67759;51.972;5.650;2024-01-07T03:53:43;9.0;50.3
78467;SHT31;67759;51.972;5.650;2024-01-07T03:56:11;9.0;50.5
78467;SHT31;67759;51.972;5.650;2024-01-07T03:58:40;9.0;50.7
78467;SHT31;67759;51.972;5.650;2024-01-07T04:01:08;9.0;49.7
78467;SHT31;67759;51.972;5.650;2024-01-07T04:03:37;9.0;49.7
78467;SHT31;67759;51.972;5.650;2024-01-07T04:06:08;9.0;49.5
78467;SHT31;67759;51.972;5.650;2024-01-07T04:08:37;8.9;50.0
78467;SHT31;67759;51.972;5.650;2024-01-07T04:11:06;8.9;50.1
78467;SHT31;67759;51.972;5.650;2024-01-07T04:13:34;8.8;50.2
78467;SHT31;67759;51.972;5.650;2024-01-07T04:16:03;8.8;50.5
78467;SHT31;67759;51.972;5.650;2024-01-07T04:18:31;8.8;50.2
78467;SHT31;67759;51.972;5.650;2024-01-07T04:21:00;8.8;50.0
78467;SHT31;67759;51.972;5.650;2024-01-07T04:23:28;8.8;50.4
78467;SHT31;67759;51.972;5.650;2024-01-07T04:25:56;8.7;50.2
78467;SHT31;67759;51.972;5.650;2024-01-07T04:28:25;8.7;50.0
78467;SHT31;67759;51.972;5.650;2024-01-07T04:30:54;8.6;50.5
78467;SHT31;67759;51.972;5.650;2024-01-07T04:33:22;8.6;50.6
78467;SHT31;67759;51.972;5.650;2024-01-07T04:35:51;8.6;50.8
78467;SHT31;67759;51.972;5.650;2024-01-07T04:38:24;8.6;50.8
78467;SHT31;67759;51.972;5.650;2024-01-07T04:40:54;8.6;51.2
78467;SHT31;67759;51.972;5.650;2024-01-07T04:43:22;8.6;51.0
78467;SHT31;67759;51.972;5.650;2024-01-07T04:45:51;8.6;50.8
78467;SHT31;67759;51.972;5.650;2024-01-07T04:48:20;8.7;50.2
78467;SHT31;67759;51.972;5.650;2024-01-07T04:50:49;8.7;50.1
78467;SHT31;67759;51.972;5.650;2024-01-07T04:53:17;8.6;50.1
78467;SHT31;67759;51.972;5.650;2024-01-07T04:55:46;8.6;50.0
78467;SHT31;67759;51.972;5.650;2024-01-07T04:58:14;8.6;50.0
78467;SHT31;67759;51.972;5.650;2024-01-07T05:00:43;8.6;50.3
78467;SHT31;67759;51.972;5.650;2024-01-07T05:03:11;8.6;50.2
78467;SHT31;67759;51.972;5.650;2024-01-07T05:05:40;8.6;49.7
78467;SHT31;67759;51.972;5.650;2024-01-07T05:08:08;8.7;49.5
78467;SHT31;67759;51.972;5.650;2024-01-07T05:10:37;8.7;50.2
78467;SHT31;67759;51.972;5.650;2024-01-07T05:13:05;8.8;49.8
78467;SHT31;67759;51.972;5.650;2024-01-07T05:15:35;8.8;49.1
78467;SHT31;67759;51.972;5.650;2024-01-07T05:18:07;8.8;49.5
78467;SHT31;67759;51.972;5.650;2024-01-07T05:20:36;8.8;49.2
78467;SHT31;67759;51.972;5.650;2024-01-07T05:23:07;8.8;48.7
78467;SHT31;67759;51.972;5.650;2024-01-07T05:25:36;8.8;48.9
78467;SHT31;67759;51.972;5.650;2024-01-07T05:28:06;8.9;50.2
78467;SHT31;67759;51.972;5.650;2024-01-07T05:30:34;8.9;48.5
78467;SHT31;67759;51.972;5.650;2024-01-07T05:33:03;8.9;47.7
78467;SHT31;67759;51.972;5.650;2024-01-07T05:35:32;8.8;48.3
78467;SHT31;67759;51.972;5.650;2024-01-07T05:38:02;8.8;48.3
78467;SHT31;67759;51.972;5.650;2024-01-07T05:40:31;8.7;48.7
78467;SHT31;67759;51.972;5.650;2024-01-07T05:42:59;8.7;48.3
78467;SHT31;67759;51.972;5.650;2024-01-07T05:45:27;8.6;48.6
78467;SHT31;67759;51.972;5.650;2024-01-07T05:47:56;8.6;48.7
78467;SHT31;67759;51.972;5.650;2024-01-07T05:50:25;8.5;48.4
78467;SHT31;67759;51.972;5.650;2024-01-07T05:52:53;8.5;48.1
78467;SHT31;67759;51.972;5.650;2024-01-07T05:55:22;8.5;48.7
78467;SHT31;67759;51.972;5.650;2024-01-07T05:57:50;8.4;48.3
78467;SHT31;67759;51.972;5.650;2024-01-07T06:00:19;8.4;48.3
78467;SHT31;67759;51.972;5.650;2024-01-07T06:02:49;8.4;48.8
78467;SHT31;67759;51.972;5.650;2024-01-07T06:05:18;8.4;49.4
78467;SHT31;67759;51.972;5.650;2024-01-07T06:07:46;8.4;49.5
78467;SHT31;67759;51.972;5.650;2024-01-07T06:10:15;8.4;49.1
78467;SHT31;67759;51.972;5.650;2024-01-07T06:12:43;8.4;48.6
78467;SHT31;67759;51.972;5.650;2024-01-07T06:15:12;8.3;49.4
78467;SHT31;67759;51.972;5.650;2024-01-07T06:17:40;8.3;49.7
78467;SHT31;67759;51.972;5.650;2024-01-07T06:20:10;8.4;48.9
78467;SHT31;67759;51.972;5.650;2024-01-07T06:22:39;8.4;48.6
78467;SHT31;67759;51.972;5.650;2024-01-07T06:25:08;8.4;48.6
78467;SHT31;67759;51.972;5.650;2024-01-07T06:27:38;8.5;48.7
78467;SHT31;67759;51.972;5.650;2024-01-07T06:30:08;8.5;48.3
78467;SHT31;67759;51.972;5.650;2024-01-07T06:32:37;8.5;48.3
78467;SHT31;67759;51.972;5.650;2024-01-07T06:35:08;8.4;48.0
78467;SHT31;67759;51.972;5.650;2024-01-07T06:37:38;8.4;48.4
78467;SHT31;67759;51.972;5.650;2024-01-07T06:40:07;8.4;48.3
78467;SHT31;67759;51.972;5.650;2024-01-07T06:42:39;8.4;48.0
78467;SHT31;67759;51.972;5.650;2024-01-07T06:45:12;8.4;48.4
78467;SHT31;67759;51.972;5.650;2024-01-07T06:47:42;8.4;47.7
78467;SHT31;67759;51.972;5.650;2024-01-07T06:50:13;8.4;47.9
78467;SHT31;67759;51.972;5.650;2024-01-07T06:52:41;8.4;48.2
78467;SHT31;67759;51.972;5.650;2024-01-07T06:55:10;8.4;48.1
78467;SHT31;67759;51.972;5.650;2024-01-07T06:57:38;8.4;47.9
78467;SHT31;67759;51.972;5.650;2024-01-07T07:00:08;8.4;48.0
78467;SHT31;67759;51.972;5.650;2024-01-07T07:02:36;8.4;48.2
78467;SHT31;67759;51.972;5.650;2024-01-07T07:05:06;8.5;47.9
78467;SHT31;67759;51.972;5.650;2024-01-07T07:07:35;8.5;47.8
78467;SHT31;67759;51.972;5.650;2024-01-07T07:10:03;8.4;48.2
78467;SHT31;67759;51.972;5.650;2024-01-07T07:12:32;8.4;48.4
78467;SHT31;67759;51.972;5.650;2024-01-07T07:15:01;8.4;47.8
78467;SHT31;67759;51.972;5.650;2024-01-07T07:17:29;8.5;48.1
78467;SHT31;67759;51.972;5.650;2024-01-07T07:20:00;8.5;47.9
78467;SHT31;67759;51.972;5.650;2024-01-07T07:22:28;8.4;47.6
78467;SHT31;67759;51.972;5.650;2024-01-07T07:24:58;8.4;47.5
78467;SHT31;67759;51.972;5.650;2024-01-07T07:27:27;8.4;47.6
78467;SHT31;67759;51.972;5.650;2024-01-07T07:29:56;8.3;47.5
78467;SHT31;67759;51.972;5.650;2024-01-07T07:32:24;8.3;48.2
78467;SHT31;67759;51.972;5.650;2024-01-07T07:34:53;8.3;47.6
78467;SHT31;67759;51.972;5.650;2024-01-07T07:37:21;8.3;47.0
78467;SHT31;67759;51.972;5.650;2024-01-07T07:39:51;8.3;47.1
78467;SHT31;67759;51.972;5.650;2024-01-07T07:42:22;8.2;46.8
78467;SHT31;67759;51.972;5.650;2024-01-07T07:44:51;8.2;47.7
78467;SHT31;67759;51.972;5.650;2024-01-07T07:47:21;8.2;47.2
78467;SHT31;67759;51.972;5.650;2024-01-07T07:49:49;8.2;48.4
78467;SHT31;67759;51.972;5.650;2024-01-07T07:52:18;8.2;47.6
78467;SHT31;67759;51.972;5.650;2024-01-07T07:54:50;8.2;47.3
78467;SHT31;67759;51.972;5.650;2024-01-07T07:57:19;8.2;47.7
78467;SHT31;67759;51.972;5.650;2024-01-07T07:59:48;8.2;47.7
78467;SHT31;67759;51.972;5.650;2024-01-07T08:02:18;8.3;47.4
78467;SHT31;67759;51.972;5.650;2024-01-07T08:04:47;8.3;47.7
78467;SHT31;67759;51.972;5.650;2024-01-07T08:07:16;8.3;47.2
78467;SHT31;67759;51.972;5.650;2024-01-07T08:09:47;8.3;46.8
78467;SHT31;67759;51.972;5.650;2024-01-07T08:12:16;8.3;46.9
78467;SHT31;67759;51.972;5.650;2024-01-07T08:14:46;8.3;47.2
78467;SHT31;67759;51.972;5.650;2024-01-07T08:17:15;8.2;46.1
78467;SHT31;67759;51.972;5.650;2024-01-07T08:19:45;8.1;46.4
78467;SHT31;67759;51.972;5.650;2024-01-07T08:22:14;8.0;46.5
78467;SHT31;67759;51.972;5.650;2024-01-07T08:24:42;7.9;46.9
78467;SHT31;67759;51.972;5.650;2024-01-07T08:27:11;7.9;47.5
78467;SHT31;67759;51.972;5.650;2024-01-07T08:29:42;7.8;48.4
78467;SHT31;67759;51.972;5.650;2024-01-07T08:32:11;7.8;48.1
78467;SHT31;67759;51.972;5.650;2024-01-07T08:34:40;7.8;47.8
78467;SHT31;67759;51.972;5.650;2024-01-07T08:37:09;7.8;47.9
78467;SHT31;67759;51.972;5.650;2024-01-07T08:39:38;7.8;48.0
78467;SHT31;67759;51.972;5.650;2024-01-07T08:42:06;7.8;47.8
78467;SHT31;67759;51.972;5.650;2024-01-07T08:44:35;7.8;48.2
78467;SHT31;67759;51.972;5.650;2024-01-07T08:47:06;7.8;47.9
78467;SHT31;67759;51.972;5.650;2024-01-07T08:49:34;7.7;48.1
78467;SHT31;67759;51.972;5.650;2024-01-07T08:52:05;7.7;47.5
78467;SHT31;67759;51.972;5.650;2024-01-07T08:54:33;7.7;48.7
78467;SHT31;67759;51.972;5.650;2024-01-07T08:57:02;7.7;48.1
78467;SHT31;67759;51.972;5.650;2024-01-07T08:59:30;7.8;48.0
78467;SHT31;67759;51.972;5.650;2024-01-07T09:01:59;7.8;47.9
78467;SHT31;67759;51.972;5.650;2024-01-07T09:04:28;7.9;48.2
78467;SHT31;67759;51.972;5.650;2024-01-07T09:06:58;7.9;48.0
78467;SHT31;67759;51.972;5.650;2024-01-07T09:09:29;7.9;47.8
78467;SHT31;67759;51.972;5.650;2024-01-07T09:11:58;7.9;47.8
78467;SHT31;67759;51.972;5.650;2024-01-07T09:14:26;7.8;48.3
78467;SHT31;67759;51.972;5.650;2024-01-07T09:16:55;7.7;47.0
78467;SHT31;67759;51.972;5.650;2024-01-07T09:19:25;7.7;47.4
78467;SHT31;67759;51.972;5.650;2024-01-07T09:21:57;7.6;47.6
78467;SHT31;67759;51.972;5.650;2024-01-07T09:24:25;7.6;47.5
78467;SHT31;67759;51.972;5.650;2024-01-07T09:26:54;7.5;47.0
78467;SHT31;67759;51.972;5.650;2024-01-07T09:29:25;7.5;47.0
78467;SHT31;67759;51.972;5.650;2024-01-07T09:31:54;7.5;47.1
78467;SHT31;67759;51.972;5.650;2024-01-07T09:34:22;7.4;47.3
78467;SHT31;67759;51.972;5.650;2024-01-07T09:36:51;7.4;47.3
78467;SHT31;67759;51.972;5.650;2024-01-07T09:39:19;7.4;47.2
78467;SHT31;67759;51.972;5.650;2024-01-07T09:41:48;7.4;47.5
78467;SHT31;67759;51.972;5.650;2024-01-07T09:44:18;7.4;48.1
78467;SHT31;67759;51.972;5.650;2024-01-07T09:46:48;7.5;48.5
78467;SHT31;67759;51.972;5.650;2024-01-07T09:49:18;7.5;48.1
78467;SHT31;67759;51.972;5.650;2024-01-07T09:51:50;7.5;47.4
78467;SHT31;67759;51.972;5.650;2024-01-07T09:54:23;7.5;46.9
78467;SHT31;67759;51.972;5.650;2024-01-07T09:56:57;7.5;46.2
78467;SHT31;67759;51.972;5.650;2024-01-07T09:59:30;7.4;47.0
78467;SHT31;67759;51.972;5.650;2024-01-07T10:02:01;7.4;47.2
78467;SHT31;67759;51.972;5.650;2024-01-07T10:04:29;7.5;47.8
78467;SHT31;67759;51.972;5.650;2024-01-07T10:06:58;7.5;47.4
78467;SHT31;67759;51.972;5.650;2024-01-07T10:09:32;7.6;46.8
78467;SHT31;67759;51.972;5.650;2024-01-07T10:12:01;7.6;47.3
78467;SHT31;67759;51.972;5.650;2024-01-07T10:14:32;7.6;47.6
78467;SHT31;67759;51.972;5.650;2024-01-07T10:17:02;7.7;46.7
78467;SHT31;67759;51.972;5.650;2024-01-07T10:19:30;7.7;46.6
78467;SHT31;67759;51.972;5.650;2024-01-07T10:22:04;7.7;45.9
78467;SHT31;67759;51.972;5.650;2024-01-07T10:24:35;7.7;46.3
78467;SHT31;67759;51.972;5.650;2024-01-07T10:27:07;7.7;46.9
78467;SHT31;67759;51.972;5.650;2024-01-07T10:29:36;7.6;46.2
78467;SHT31;67759;51.972;5.650;2024-01-07T10:32:06;7.7;46.9
78467;SHT31;67759;51.972;5.650;2024-01-07T10:34:35;7.7;46.9
78467;SHT31;67759;51.972;5.650;2024-01-07T10:37:04;7.7;45.9
78467;SHT31;67759;51.972;5.650;2024-01-07T10:39:35;7.6;45.3
78467;SHT31;67759;51.972;5.650;2024-01-07T10:42:04;7.6;44.9
78467;SHT31;67759;51.972;5.650;2024-01-07T10:44:33;7.6;46.0
78467;SHT31;67759;51.972;5.650;2024-01-07T10:47:06;7.6;45.9
78467;SHT31;67759;51.972;5.650;2024-01-07T10:49:38;7.5;45.9
78467;SHT31;67759;51.972;5.650;2024-01-07T10:52:10;7.5;45.7
78467;SHT31;67759;51.972;5.650;2024-01-07T10:54:42;7.4;46.0
78467;SHT31;67759;51.972;5.650;2024-01-07T10:57:21;7.3;45.9
78467;SHT31;67759;51.972;5.650;2024-01-07T10:59:53;7.2;45.2
78467;SHT31;67759;51.972;5.650;2024-01-07T11:02:23;7.1;46.5
78467;SHT31;67759;51.972;5.650;2024-01-07T11:05:00;7.1;46.7
78467;SHT31;67759;51.972;5.650;2024-01-07T11:07:35;7.1;46.8
78467;SHT31;67759;51.972;5.650;2024-01-07T11:10:11;7.1;47.1
78467;SHT31;67759;51.972;5.650;2024-01-07T11:12:40;7.1;46.7
78467;SHT31;67759;51.972;5.650;2024-01-07T11:15:11;7.2;47.0
78467;SHT31;67759;51.972;5.650;2024-01-07T11:17:43;7.2;46.6
78467;SHT31;67759;51.972;5.650;2024-01-07T11:20:21;7.3;45.2
78467;SHT31;67759;51.972;5.650;2024-01-07T11:23:21;7.3;45.0
78467;SHT31;67759;51.972;5.650;2024-01-07T11:25:54;7.3;44.9
78467;SHT31;67759;51.972;5.650;2024-01-07T11:28:49;7.3;45.1
78467;SHT31;67759;51.972;5.650;2024-01-07T11:31:19;7.3;45.9
78467;SHT31;67759;51.972;5.650;2024-01-07T11:33:49;7.3;45.2
78467;SHT31;67759;51.972;5.650;2024-01-07T11:36:18;7.2;45.0
78467;SHT31;67759;51.972;5.650;2024-01-07T11:38:48;7.2;45.2
78467;SHT31;67759;51.972;5.650;2024-01-07T11:41:22;7.2;46.2
78467;SHT31;67759;51.972;5.650;2024-01-07T11:43:57;7.1;44.7
78467;SHT31;67759;51.972;5.650;2024-01-07T11:46:27;7.2;44.9
78467;SHT31;67759;51.972;5.650;2024-01-07T11:48:58;7.2;44.7
78467;SHT31;67759;51.972;5.650;2024-01-07T11:51:29;7.3;44.8
78467;SHT31;67759;51.972;5.650;2024-01-07T11:53:59;7.3;44.2
78467;SHT31;67759;51.972;5.650;2024-01-07T11:56:28;7.3;44.7
78467;SHT31;67759;51.972;5.650;2024-01-07T11:58:57;7.3;43.4
78467;SHT31;67759;51.972;5.650;2024-01-07T12:01:26;7.3;43.3
78467;SHT31;67759;51.972;5.650;2024-01-07T12:03:56;7.4;44.3
78467;SHT31;67759;51.972;5.650;2024-01-07T12:06:24;7.4;42.8
78467;SHT31;67759;51.972;5.650;2024-01-07T12:08:53;7.5;44.3
78467;SHT31;67759;51.972;5.650;2024-01-07T12:11:22;7.5;43.0
78467;SHT31;67759;51.972;5.650;2024-01-07T12:13:53;7.6;43.4
78467;SHT31;67759;51.972;5.650;2024-01-07T12:16:22;7.6;43.4
78467;SHT31;67759;51.972;5.650;2024-01-07T12:18:52;7.7;43.2
78467;SHT31;67759;51.972;5.650;2024-01-07T12:21:22;7.7;41.5
78467;SHT31;67759;51.972;5.650;2024-01-07T12:23:50;7.8;41.3
78467;SHT31;67759;51.972;5.650;2024-01-07T12:26:20;7.8;41.2
78467;SHT31;67759;51.972;5.650;2024-01-07T12:28:55;7.8;41.7
78467;SHT31;67759;51.972;5.650;2024-01-07T12:31:26;7.8;40.6
78467;SHT31;67759;51.972;5.650;2024-01-07T12:33:58;7.8;41.1
78467;SHT31;67759;51.972;5.650;2024-01-07T12:36:31;7.8;40.4
78467;SHT31;67759;51.972;5.650;2024-01-07T12:39:00;7.8;40.5
78467;SHT31;67759;51.972;5.650;2024-01-07T12:41:30;7.9;40.0
78467;SHT31;67759;51.972;5.650;2024-01-07T12:43:59;7.9;39.4
78467;SHT31;67759;51.972;5.650;2024-01-07T12:46:28;7.9;39.1
78467;SHT31;67759;51.972;5.650;2024-01-07T12:48:58;7.9;39.8
78467;SHT31;67759;51.972;5.650;2024-01-07T12:51:28;7.9;40.8
78467;SHT31;67759;51.972;5.650;2024-01-07T12:53:59;7.9;40.2
78467;SHT31;67759;51.972;5.650;2024-01-07T12:56:30;8.0;40.4
78467;SHT31;67759;51.972;5.650;2024-01-07T12:58:58;8.1;40.8
78467;SHT31;67759;51.972;5.650;2024-01-07T13:01:27;8.2;40.8
78467;SHT31;67759;51.972;5.650;2024-01-07T13:03:57;8.4;40.8
78467;SHT31;67759;51.972;5.650;2024-01-07T13:06:26;8.4;39.9
78467;SHT31;67759;51.972;5.650;2024-01-07T13:08:54;8.5;39.9
78467;SHT31;67759;51.972;5.650;2024-01-07T13:11:25;8.5;40.2
78467;SHT31;67759;51.972;5.650;2024-01-07T13:13:53;8.4;40.9
78467;SHT31;67759;51.972;5.650;2024-01-07T13:16:25;8.4;39.9
78467;SHT31;67759;51.972;5.650;2024-01-07T13:18:54;8.3;39.3
78467;SHT31;67759;51.972;5.650;2024-01-07T13:21:25;8.2;40.8
78467;SHT31;67759;51.972;5.650;2024-01-07T13:23:54;8.1;39.4
78467;SHT31;67759;51.972;5.650;2024-01-07T13:26:26;8.1;41.1
78467;SHT31;67759;51.972;5.650;2024-01-07T13:28:54;8.0;40.1
78467;SHT31;67759;51.972;5.650;2024-01-07T13:31:23;8.0;40.5
78467;SHT31;67759;51.972;5.650;2024-01-07T13:33:51;7.9;38.8
78467;SHT31;67759;51.972;5.650;2024-01-07T13:36:20;7.9;39.7
78467;SHT31;67759;51.972;5.650;2024-01-07T13:38:49;7.8;39.0
78467;SHT31;67759;51.972;5.650;2024-01-07T13:41:20;7.8;39.8
78467;SHT31;67759;51.972;5.650;2024-01-07T13:43:50;7.7;39.6
78467;SHT31;67759;51.972;5.650;2024-01-07T13:46:19;7.6;39.4
78467;SHT31;67759;51.972;5.650;2024-01-07T13:48:49;7.6;40.0
78467;SHT31;67759;51.972;5.650;2024-01-07T13:51:19;7.5;38.9
78467;SHT31;67759;51.972;5.650;2024-01-07T13:53:48;7.5;40.0
78467;SHT31;67759;51.972;5.650;2024-01-07T13:56:18;7.4;40.0
78467;SHT31;67759;51.972;5.650;2024-01-07T13:58:47;7.4;39.8
78467;SHT31;67759;51.972;5.650;2024-01-07T14:01:16;7.3;40.9
78467;SHT31;67759;51.972;5.650;2024-01-07T14:03:45;7.3;39.7
78467;SHT31;67759;51.972;5.650;2024-01-07T14:06:13;7.3;40.4
78467;SHT31;67759;51.972;5.650;2024-01-07T14:08:42;7.4;41.0
78467;SHT31;67759;51.972;5.650;2024-01-07T14:11:10;7.4;40.2
78467;SHT31;67759;51.972;5.650;2024-01-07T14:13:39;7.4;39.4
78467;SHT31;67759;51.972;5.650;2024-01-07T14:16:11;7.3;39.3
78467;SHT31;67759;51.972;5.650;2024-01-07T14:18:39;7.3;39.3
78467;SHT31;67759;51.972;5.650;2024-01-07T14:21:08;7.3;41.2
78467;SHT31;67759;51.972;5.650;2024-01-07T14:23:37;7.4;40.0
78467;SHT31;67759;51.972;5.650;2024-01-07T14:26:06;7.3;40.5
78467;SHT31;67759;51.972;5.650;2024-01-07T14:28:34;7.4;41.8
78467;SHT31;67759;51.972;5.650;2024-01-07T14:31:03;7.4;41.0
78467;SHT31;67759;51.972;5.650;2024-01-07T14:33:35;7.4;39.6
78467;SHT31;67759;51.972;5.650;2024-01-07T14:36:04;7.5;40.0
78467;SHT31;67759;51.972;5.650;2024-01-07T14:38:36;7.6;40.1
78467;SHT31;67759;51.972;5.650;2024-01-07T14:41:04;7.6;40.0
78467;SHT31;67759;51.972;5.650;2024-01-07T14:43:33;7.7;39.9
78467;SHT31;67759;51.972;5.650;2024-01-07T14:46:03;7.7;39.2
78467;SHT31;67759;51.972;5.650;2024-01-07T14:48:34;7.7;38.9
78467;SHT31;67759;51.972;5.650;2024-01-07T14:51:03;7.7;38.9
78467;SHT31;67759;51.972;5.650;2024-01-07T14:53:31;7.7;38.8
78467;SHT31;67759;51.972;5.650;2024-01-07T14:56:02;7.6;40.9
78467;SHT31;67759;51.972;5.650;2024-01-07T14:58:31;7.6;40.9
78467;SHT31;67759;51.972;5.650;2024-01-07T15:01:00;7.6;39.6
78467;SHT31;67759;51.972;5.650;2024-01-07T15:03:29;7.6;40.1
78467;SHT31;67759;51.972;5.650;2024-01-07T15:06:00;7.6;40.1
78467;SHT31;67759;51.972;5.650;2024-01-07T15:08:30;7.7;39.8
78467;SHT31;67759;51.972;5.650;2024-01-07T15:10:59;7.7;39.4
78467;SHT31;67759;51.972;5.650;2024-01-07T15:13:28;7.7;40.1
78467;SHT31;67759;51.972;5.650;2024-01-07T15:15:57;7.7;41.0
78467;SHT31;67759;51.972;5.650;2024-01-07T15:18:25;7.7;40.0
78467;SHT31;67759;51.972;5.650;2024-01-07T15:20:57;7.7;39.9
78467;SHT31;67759;51.972;5.650;2024-01-07T15:23:25;7.7;41.3
78467;SHT31;67759;51.972;5.650;2024-01-07T15:25:55;7.7;40.5
78467;SHT31;67759;51.972;5.650;2024-01-07T15:28:23;7.7;41.9
78467;SHT31;67759;51.972;5.650;2024-01-07T15:30:51;7.7;41.1
78467;SHT31;67759;51.972;5.650;2024-01-07T15:33:21;7.6;40.4
78467;SHT31;67759;51.972;5.650;2024-01-07T15:35:50;7.6;40.7
78467;SHT31;67759;51.972;5.650;2024-01-07T15:38:18;7.6;40.4
78467;SHT31;67759;51.972;5.650;2024-01-07T15:40:47;7.6;40.7
78467;SHT31;67759;51.972;5.650;2024-01-07T15:43:15;7.5;42.2
78467;SHT31;67759;51.972;5.650;2024-01-07T15:45:45;7.5;40.0
78467;SHT31;67759;51.972;5.650;2024-01-07T15:48:14;7.4;41.6
78467;SHT31;67759;51.972;5.650;2024-01-07T15:50:43;7.4;41.3
78467;SHT31;67759;51.972;5.650;2024-01-07T15:53:16;7.4;42.0
78467;SHT31;67759;51.972;5.650;2024-01-07T15:55:44;7.4;41.0
78467;SHT31;67759;51.972;5.650;2024-01-07T15:58:14;7.4;42.1
78467;SHT31;67759;51.972;5.650;2024-01-07T16:00:43;7.3;41.3
78467;SHT31;67759;51.972;5.650;2024-01-07T16:03:12;7.3;42.5
78467;SHT31;67759;51.972;5.650;2024-01-07T16:05:40;7.3;42.8
78467;SHT31;67759;51.972;5.650;2024-01-07T16:08:09;7.2;43.9
78467;SHT31;67759;51.972;5.650;2024-01-07T16:10:37;7.2;42.6
78467;SHT31;67759;51.972;5.650;2024-01-07T16:13:06;7.2;44.2
78467;SHT31;67759;51.972;5.650;2024-01-07T16:15:35;7.2;42.5
78467;SHT31;67759;51.972;5.650;2024-01-07T16:18:04;7.2;43.3
78467;SHT31;67759;51.972;5.650;2024-01-07T16:20:33;7.2;44.1
78467;SHT31;67759;51.972;5.650;2024-01-07T16:23:01;7.2;43.7
78467;SHT31;67759;51.972;5.650;2024-01-07T16:25:31;7.2;44.5
78467;SHT31;67759;51.972;5.650;2024-01-07T16:28:01;7.2;43.0
78467;SHT31;67759;51.972;5.650;2024-01-07T16:30:32;7.1;43.4
78467;SHT31;67759;51.972;5.650;2024-01-07T16:33:00;7.1;42.3